sensor_id;sensor_type;location;lat;lon;timestamp;temperature;humidity
22558;DHT22;11445;53.816;8.902;2023-12-20T00:02:19;5.90;99.90
22558;DHT22;11445;53.816;8.902;2023-12-20T00:04:46;5.90;99.90
22558;DHT22;11445;53.816;8.902;2023-12-20T00:07:13;5.90;99.90
22558;DHT22;11445;53.816;8.902;2023-12-20T00:09:40;5.90;99.90
22558;DHT22;11445;53.816;8.902;2023-12-20T00:12:07;5.90;99.90
22558;DHT22;11445;53.816;8.902;2023-12-20T00:14:35;6.00;99.90
22558;DHT22;11445;53.816;8.902;2023-12-20T00:17:02;5.90;99.90
22558;DHT22;11445;53.816;8.902;2023-12-20T00:19:29;5.90;99.90
22558;DHT22;11445;53.816;8.902;2023-12-20T00:21:56;5.90;99.90
22558;DHT22;11445;53.816;8.902;2023-12-20T00:24:22;5.90;99.90
22558;DHT22;11445;53.816;8.902;2023-12-20T00:26:49;5.90;99.90
22558;DHT22;11445;53.816;8.902;2023-12-20T00:29:16;5.90;99.90
22558;DHT22;11445;53.816;8.902;2023-12-20T00:31:45;5.80;99.90
22558;DHT22;11445;53.816;8.902;2023-12-20T00:34:11;5.80;99.90
22558;DHT22;11445;53.816;8.902;2023-12-20T00:36:38;5.80;99.90
22558;DHT22;11445;53.816;8.902;2023-12-20T00:39:05;5.80;99.90
22558;DHT22;11445;53.816;8.902;2023-12-20T00:41:32;5.80;99.90
22558;DHT22;11445;53.816;8.902;2023-12-20T00:43:59;5.80;99.90
22558;DHT22;11445;53.816;8.902;2023-12-20T00:46:26;5.70;99.90
22558;DHT22;11445;53.816;8.902;2023-12-20T00:48:54;5.70;99.90
22558;DHT22;11445;53.816;8.902;2023-12-20T00:51:20;5.70;99.90
22558;DHT22;11445;53.816;8.902;2023-12-20T00:53:48;5.70;99.90
22558;DHT22;11445;53.816;8.902;2023-12-20T00:56:15;5.70;99.90
22558;DHT22;11445;53.816;8.902;2023-12-20T00:58:42;5.70;99.90
22558;DHT22;11445;53.816;8.902;2023-12-20T01:01:09;5.60;99.90
22558;DHT22;11445;53.816;8.902;2023-12-20T01:03:36;5.60;99.90
22558;DHT22;11445;53.816;8.902;2023-12-20T01:06:04;5.60;99.90
22558;DHT22;11445;53.816;8.902;2023-12-20T01:08:31;5.60;99.90
22558;DHT22;11445;53.816;8.902;2023-12-20T01:11:00;5.60;99.90
22558;DHT22;11445;53.816;8.902;2023-12-20T01:13:26;5.60;99.90
22558;DHT22;11445;53.816;8.902;2023-12-20T01:15:53;5.60;99.90
22558;DHT22;11445;53.816;8.902;2023-12-20T01:18:21;5.60;99.90
22558;DHT22;11445;53.816;8.902;2023-12-20T01:20:47;5.60;99.90
22558;DHT22;11445;53.816;8.902;2023-12-20T01:23:15;5.60;99.90
22558;DHT22;11445;53.816;8.902;2023-12-20T01:25:42;5.70;99.90
22558;DHT22;11445;53.816;8.902;2023-12-20T01:28:09;5.70;99.90
22558;DHT22;11445;53.816;8.902;2023-12-20T01:30:36;5.70;99.90
22558;DHT22;11445;53.816;8.902;2023-12-20T01:33:03;5.80;99.90
22558;DHT22;11445;53.816;8.902;2023-12-20T01:35:30;5.90;99.90
22558;DHT22;11445;53.816;8.902;2023-12-20T01:37:57;6.00;99.90
22558;DHT22;11445;53.816;8.902;2023-12-20T01:40:25;6.00;99.90
22558;DHT22;11445;53.816;8.902;2023-12-20T01:42:58;6.00;99.90
22558;DHT22;11445;53.816;8.902;2023-12-20T01:45:25;6.00;99.90
22558;DHT22;11445;53.816;8.902;2023-12-20T01:47:52;6.10;99.90
22558;DHT22;11445;53.816;8.902;2023-12-20T01:50:19;6.10;99.90
22558;DHT22;11445;53.816;8.902;2023-12-20T01:52:47;6.10;99.90
22558;DHT22;11445;53.816;8.902;2023-12-20T01:55:14;6.10;99.90
22558;DHT22;11445;53.816;8.902;2023-12-20T01:57:43;6.10;99.90
22558;DHT22;11445;53.816;8.902;2023-12-20T02:00:12;6.10;99.90
22558;DHT22;11445;53.816;8.902;2023-12-20T02:02:40;6.10;99.90
22558;DHT22;11445;53.816;8.902;2023-12-20T02:05:07;6.10;99.90
22558;DHT22;11445;53.816;8.902;2023-12-20T02:07:34;6.00;99.90
22558;DHT22;11445;53.816;8.902;2023-12-20T02:10:01;6.10;99.90
22558;DHT22;11445;53.816;8.902;2023-12-20T02:12:29;6.00;99.90
22558;DHT22;11445;53.816;8.902;2023-12-20T02:14:57;6.10;99.90
22558;DHT22;11445;53.816;8.902;2023-12-20T02:17:25;6.10;99.90
22558;DHT22;11445;53.816;8.902;2023-12-20T02:19:52;6.10;99.90
22558;DHT22;11445;53.816;8.902;2023-12-20T02:22:20;6.10;99.90
22558;DHT22;11445;53.816;8.902;2023-12-20T02:24:47;6.10;99.90
22558;DHT22;11445;53.816;8.902;2023-12-20T02:27:15;6.10;99.90
22558;DHT22;11445;53.816;8.902;2023-12-20T02:29:45;6.10;99.90
22558;DHT22;11445;53.816;8.902;2023-12-20T02:32:13;6.10;99.90
22558;DHT22;11445;53.816;8.902;2023-12-20T02:34:40;6.10;99.90
22558;DHT22;11445;53.816;8.902;2023-12-20T02:37:06;6.10;99.90
22558;DHT22;11445;53.816;8.902;2023-12-20T02:39:35;6.10;99.90
22558;DHT22;11445;53.816;8.902;2023-12-20T02:42:02;6.20;99.90
22558;DHT22;11445;53.816;8.902;2023-12-20T02:44:29;6.20;99.90
22558;DHT22;11445;53.816;8.902;2023-12-20T02:46:55;6.20;99.90
22558;DHT22;11445;53.816;8.902;2023-12-20T02:49:22;6.10;99.90
22558;DHT22;11445;53.816;8.902;2023-12-20T02:51:49;6.10;99.90
22558;DHT22;11445;53.816;8.902;2023-12-20T02:54:16;6.20;99.90
22558;DHT22;11445;53.816;8.902;2023-12-20T02:56:44;6.20;99.90
22558;DHT22;11445;53.816;8.902;2023-12-20T02:59:11;6.10;99.90
22558;DHT22;11445;53.816;8.902;2023-12-20T03:01:43;6.20;99.90
22558;DHT22;11445;53.816;8.902;2023-12-20T03:04:12;6.20;99.90
22558;DHT22;11445;53.816;8.902;2023-12-20T03:06:38;6.10;99.90
22558;DHT22;11445;53.816;8.902;2023-12-20T03:09:05;6.20;99.90
22558;DHT22;11445;53.816;8.902;2023-12-20T03:11:32;6.20;99.90
22558;DHT22;11445;53.816;8.902;2023-12-20T03:14:01;6.20;99.90
22558;DHT22;11445;53.816;8.902;2023-12-20T03:16:27;6.20;99.90
22558;DHT22;11445;53.816;8.902;2023-12-20T03:18:55;6.20;99.90
22558;DHT22;11445;53.816;8.902;2023-12-20T03:21:21;6.20;99.90
22558;DHT22;11445;53.816;8.902;2023-12-20T03:23:48;6.20;99.90
22558;DHT22;11445;53.816;8.902;2023-12-20T03:26:15;6.20;99.90
22558;DHT22;11445;53.816;8.902;2023-12-20T03:28:42;6.10;99.90
22558;DHT22;11445;53.816;8.902;2023-12-20T03:31:11;6.10;99.90
22558;DHT22;11445;53.816;8.902;2023-12-20T03:33:37;6.10;99.90
22558;DHT22;11445;53.816;8.902;2023-12-20T03:36:04;6.10;99.90
22558;DHT22;11445;53.816;8.902;2023-12-20T03:38:31;6.10;99.90
22558;DHT22;11445;53.816;8.902;2023-12-20T03:40:58;6.10;99.90
22558;DHT22;11445;53.816;8.902;2023-12-20T03:43:25;6.10;99.90
22558;DHT22;11445;53.816;8.902;2023-12-20T03:45:52;6.10;99.90
22558;DHT22;11445;53.816;8.902;2023-12-20T03:48:20;6.10;99.90
22558;DHT22;11445;53.816;8.902;2023-12-20T03:50:47;6.20;99.90
22558;DHT22;11445;53.816;8.902;2023-12-20T03:53:14;6.20;99.90
22558;DHT22;11445;53.816;8.902;2023-12-20T03:55:41;6.20;99.90
22558;DHT22;11445;53.816;8.902;2023-12-20T03:58:08;6.20;99.90
22558;DHT22;11445;53.816;8.902;2023-12-20T04:00:34;6.20;99.90
22558;DHT22;11445;53.816;8.902;2023-12-20T04:03:01;6.20;99.90
22558;DHT22;11445;53.816;8.902;2023-12-20T04:05:29;6.10;99.90
22558;DHT22;11445;53.816;8.902;2023-12-20T04:07:56;6.10;99.90
22558;DHT22;11445;53.816;8.902;2023-12-20T04:10:23;6.20;99.90
22558;DHT22;11445;53.816;8.902;2023-12-20T04:12:50;6.20;99.90
22558;DHT22;11445;53.816;8.902;2023-12-20T04:15:16;6.10;99.90
22558;DHT22;11445;53.816;8.902;2023-12-20T04:17:43;6.20;99.90
22558;DHT22;11445;53.816;8.902;2023-12-20T04:20:10;6.20;99.90
22558;DHT22;11445;53.816;8.902;2023-12-20T04:22:38;6.20;99.90
22558;DHT22;11445;53.816;8.902;2023-12-20T04:25:06;6.20;99.90
22558;DHT22;11445;53.816;8.902;2023-12-20T04:27:33;6.20;99.90
22558;DHT22;11445;53.816;8.902;2023-12-20T04:29:59;6.30;99.90
22558;DHT22;11445;53.816;8.902;2023-12-20T04:32:26;6.30;99.90
22558;DHT22;11445;53.816;8.902;2023-12-20T04:34:53;6.30;99.90
22558;DHT22;11445;53.816;8.902;2023-12-20T04:37:20;6.20;99.90
22558;DHT22;11445;53.816;8.902;2023-12-20T04:39:48;6.20;99.90
22558;DHT22;11445;53.816;8.902;2023-12-20T04:42:15;6.20;99.90
22558;DHT22;11445;53.816;8.902;2023-12-20T04:44:42;6.20;99.90
22558;DHT22;11445;53.816;8.902;2023-12-20T04:47:09;6.20;99.90
22558;DHT22;11445;53.816;8.902;2023-12-20T04:49:36;6.20;99.90
22558;DHT22;11445;53.816;8.902;2023-12-20T04:52:03;6.30;99.90
22558;DHT22;11445;53.816;8.902;2023-12-20T04:54:30;6.30;99.90
22558;DHT22;11445;53.816;8.902;2023-12-20T04:56:58;6.30;99.90
22558;DHT22;11445;53.816;8.902;2023-12-20T04:59:25;6.20;99.90
22558;DHT22;11445;53.816;8.902;2023-12-20T05:01:51;6.20;99.90
22558;DHT22;11445;53.816;8.902;2023-12-20T05:04:18;6.20;99.90
22558;DHT22;11445;53.816;8.902;2023-12-20T05:06:46;6.20;99.90
22558;DHT22;11445;53.816;8.902;2023-12-20T05:09:12;6.30;99.90
22558;DHT22;11445;53.816;8.902;2023-12-20T05:11:39;6.30;99.90
22558;DHT22;11445;53.816;8.902;2023-12-20T05:14:07;6.20;99.90
22558;DHT22;11445;53.816;8.902;2023-12-20T05:16:34;6.20;99.90
22558;DHT22;11445;53.816;8.902;2023-12-20T05:19:01;6.20;99.90
22558;DHT22;11445;53.816;8.902;2023-12-20T05:21:32;6.20;99.90
22558;DHT22;11445;53.816;8.902;2023-12-20T05:23:59;6.30;99.90
22558;DHT22;11445;53.816;8.902;2023-12-20T05:26:26;6.30;99.90
22558;DHT22;11445;53.816;8.902;2023-12-20T05:28:52;6.30;99.90
22558;DHT22;11445;53.816;8.902;2023-12-20T05:31:20;6.20;99.90
22558;DHT22;11445;53.816;8.902;2023-12-20T05:33:47;6.30;99.90
22558;DHT22;11445;53.816;8.902;2023-12-20T05:36:14;6.20;99.90
22558;DHT22;11445;53.816;8.902;2023-12-20T05:38:41;6.20;99.90
22558;DHT22;11445;53.816;8.902;2023-12-20T05:41:08;6.20;99.90
22558;DHT22;11445;53.816;8.902;2023-12-20T05:43:35;6.10;99.90
22558;DHT22;11445;53.816;8.902;2023-12-20T05:46:01;6.20;99.90
22558;DHT22;11445;53.816;8.902;2023-12-20T05:48:30;6.20;99.90
22558;DHT22;11445;53.816;8.902;2023-12-20T05:50:57;6.20;99.90
22558;DHT22;11445;53.816;8.902;2023-12-20T05:53:24;6.20;99.90
22558;DHT22;11445;53.816;8.902;2023-12-20T05:55:51;6.20;99.90
22558;DHT22;11445;53.816;8.902;2023-12-20T05:58:17;6.20;99.90
22558;DHT22;11445;53.816;8.902;2023-12-20T06:00:44;6.30;99.90
22558;DHT22;11445;53.816;8.902;2023-12-20T06:03:11;6.20;99.90
22558;DHT22;11445;53.816;8.902;2023-12-20T06:05:39;6.20;99.90
22558;DHT22;11445;53.816;8.902;2023-12-20T06:08:06;6.20;99.90
22558;DHT22;11445;53.816;8.902;2023-12-20T06:10:33;6.30;99.90
22558;DHT22;11445;53.816;8.902;2023-12-20T06:13:00;6.30;99.90
22558;DHT22;11445;53.816;8.902;2023-12-20T06:15:27;6.30;99.90
22558;DHT22;11445;53.816;8.902;2023-12-20T06:17:54;6.30;99.90
22558;DHT22;11445;53.816;8.902;2023-12-20T06:20:20;6.20;99.90
22558;DHT22;11445;53.816;8.902;2023-12-20T06:22:48;6.30;99.90
22558;DHT22;11445;53.816;8.902;2023-12-20T06:25:16;6.30;99.90
22558;DHT22;11445;53.816;8.902;2023-12-20T06:27:42;6.30;99.90
22558;DHT22;11445;53.816;8.902;2023-12-20T06:30:10;6.30;99.90
22558;DHT22;11445;53.816;8.902;2023-12-20T06:32:37;6.20;99.90
22558;DHT22;11445;53.816;8.902;2023-12-20T06:35:06;6.30;99.90
22558;DHT22;11445;53.816;8.902;2023-12-20T06:37:32;6.20;99.90
22558;DHT22;11445;53.816;8.902;2023-12-20T06:40:01;6.20;99.90
22558;DHT22;11445;53.816;8.902;2023-12-20T06:42:28;6.20;99.90
22558;DHT22;11445;53.816;8.902;2023-12-20T06:44:55;6.20;99.90
22558;DHT22;11445;53.816;8.902;2023-12-20T06:47:22;6.20;99.90
22558;DHT22;11445;53.816;8.902;2023-12-20T06:49:48;6.20;99.90
22558;DHT22;11445;53.816;8.902;2023-12-20T06:52:15;6.30;99.90
22558;DHT22;11445;53.816;8.902;2023-12-20T06:54:42;6.30;99.90
22558;DHT22;11445;53.816;8.902;2023-12-20T06:57:10;6.30;99.90
22558;DHT22;11445;53.816;8.902;2023-12-20T06:59:38;6.30;99.90
22558;DHT22;11445;53.816;8.902;2023-12-20T07:02:06;6.20;99.90
22558;DHT22;11445;53.816;8.902;2023-12-20T07:04:33;6.30;99.90
22558;DHT22;11445;53.816;8.902;2023-12-20T07:07:00;6.30;99.90
22558;DHT22;11445;53.816;8.902;2023-12-20T07:09:27;6.30;99.90
22558;DHT22;11445;53.816;8.902;2023-12-20T07:11:53;6.40;99.90
22558;DHT22;11445;53.816;8.902;2023-12-20T07:14:21;6.40;99.90
22558;DHT22;11445;53.816;8.902;2023-12-20T07:16:48;6.40;99.90
22558;DHT22;11445;53.816;8.902;2023-12-20T07:19:15;6.30;99.90
22558;DHT22;11445;53.816;8.902;2023-12-20T07:21:42;6.40;99.90
22558;DHT22;11445;53.816;8.902;2023-12-20T07:24:09;6.40;99.90
22558;DHT22;11445;53.816;8.902;2023-12-20T07:26:35;6.40;99.90
22558;DHT22;11445;53.816;8.902;2023-12-20T07:29:03;6.40;99.90
22558;DHT22;11445;53.816;8.902;2023-12-20T07:31:31;6.40;99.90
22558;DHT22;11445;53.816;8.902;2023-12-20T07:33:58;6.40;99.90
22558;DHT22;11445;53.816;8.902;2023-12-20T07:36:25;6.40;99.90
22558;DHT22;11445;53.816;8.902;2023-12-20T07:38:52;6.40;99.90
22558;DHT22;11445;53.816;8.902;2023-12-20T07:41:18;6.40;99.90
22558;DHT22;11445;53.816;8.902;2023-12-20T07:43:46;6.30;99.90
22558;DHT22;11445;53.816;8.902;2023-12-20T07:46:13;6.30;99.90
22558;DHT22;11445;53.816;8.902;2023-12-20T07:48:41;6.40;99.90
22558;DHT22;11445;53.816;8.902;2023-12-20T07:51:08;6.50;99.90
22558;DHT22;11445;53.816;8.902;2023-12-20T07:53:35;6.50;99.90
22558;DHT22;11445;53.816;8.902;2023-12-20T07:56:13;6.50;99.90
22558;DHT22;11445;53.816;8.902;2023-12-20T07:58:40;6.50;99.90
22558;DHT22;11445;53.816;8.902;2023-12-20T08:01:07;6.50;99.90
22558;DHT22;11445;53.816;8.902;2023-12-20T08:03:34;6.50;99.90
22558;DHT22;11445;53.816;8.902;2023-12-20T08:06:02;6.50;99.90
22558;DHT22;11445;53.816;8.902;2023-12-20T08:08:29;6.50;99.90
22558;DHT22;11445;53.816;8.902;2023-12-20T08:10:56;6.50;99.90
22558;DHT22;11445;53.816;8.902;2023-12-20T08:13:25;6.50;99.90
22558;DHT22;11445;53.816;8.902;2023-12-20T08:15:53;6.60;99.90
22558;DHT22;11445;53.816;8.902;2023-12-20T08:18:21;6.60;99.90
22558;DHT22;11445;53.816;8.902;2023-12-20T08:20:48;6.60;99.90
22558;DHT22;11445;53.816;8.902;2023-12-20T08:23:16;6.30;99.90
22558;DHT22;11445;53.816;8.902;2023-12-20T08:25:43;5.80;99.90
22558;DHT22;11445;53.816;8.902;2023-12-20T08:28:10;5.50;99.90
22558;DHT22;11445;53.816;8.902;2023-12-20T08:30:37;5.30;99.90
22558;DHT22;11445;53.816;8.902;2023-12-20T08:33:04;5.10;99.90
22558;DHT22;11445;53.816;8.902;2023-12-20T08:35:33;5.10;99.90
22558;DHT22;11445;53.816;8.902;2023-12-20T08:37:59;5.00;99.90
22558;DHT22;11445;53.816;8.902;2023-12-20T08:40:28;5.00;99.90
22558;DHT22;11445;53.816;8.902;2023-12-20T08:42:54;5.00;99.90
22558;DHT22;11445;53.816;8.902;2023-12-20T08:45:21;5.00;99.90
22558;DHT22;11445;53.816;8.902;2023-12-20T08:47:48;5.00;99.90
22558;DHT22;11445;53.816;8.902;2023-12-20T08:50:15;5.00;99.90
22558;DHT22;11445;53.816;8.902;2023-12-20T08:52:42;5.00;99.90
22558;DHT22;11445;53.816;8.902;2023-12-20T08:55:09;5.00;99.90
22558;DHT22;11445;53.816;8.902;2023-12-20T08:57:37;5.10;99.90
22558;DHT22;11445;53.816;8.902;2023-12-20T09:00:05;5.10;99.90
22558;DHT22;11445;53.816;8.902;2023-12-20T09:02:33;5.20;99.90
22558;DHT22;11445;53.816;8.902;2023-12-20T09:05:01;5.20;99.90
22558;DHT22;11445;53.816;8.902;2023-12-20T09:07:28;5.30;99.90
22558;DHT22;11445;53.816;8.902;2023-12-20T09:09:56;5.40;99.90
22558;DHT22;11445;53.816;8.902;2023-12-20T09:12:24;5.40;99.90
22558;DHT22;11445;53.816;8.902;2023-12-20T09:14:52;5.50;99.90
22558;DHT22;11445;53.816;8.902;2023-12-20T09:17:19;5.50;99.90
22558;DHT22;11445;53.816;8.902;2023-12-20T09:19:48;5.50;99.90
22558;DHT22;11445;53.816;8.902;2023-12-20T09:22:15;5.60;99.90
22558;DHT22;11445;53.816;8.902;2023-12-20T09:24:42;5.60;99.90
22558;DHT22;11445;53.816;8.902;2023-12-20T09:27:08;5.70;99.90
22558;DHT22;11445;53.816;8.902;2023-12-20T09:29:35;5.70;99.90
22558;DHT22;11445;53.816;8.902;2023-12-20T09:32:04;5.80;99.90
22558;DHT22;11445;53.816;8.902;2023-12-20T09:34:31;5.80;99.90
22558;DHT22;11445;53.816;8.902;2023-12-20T09:36:57;5.80;99.90
22558;DHT22;11445;53.816;8.902;2023-12-20T09:39:24;5.90;99.90
22558;DHT22;11445;53.816;8.902;2023-12-20T09:41:59;6.00;99.90
22558;DHT22;11445;53.816;8.902;2023-12-20T09:44:26;6.00;99.90
22558;DHT22;11445;53.816;8.902;2023-12-20T09:46:55;6.00;99.90
22558;DHT22;11445;53.816;8.902;2023-12-20T09:49:23;6.00;99.90
22558;DHT22;11445;53.816;8.902;2023-12-20T09:51:53;6.00;99.90
22558;DHT22;11445;53.816;8.902;2023-12-20T09:54:21;6.10;99.90
22558;DHT22;11445;53.816;8.902;2023-12-20T09:56:48;6.10;99.90
22558;DHT22;11445;53.816;8.902;2023-12-20T09:59:15;6.10;99.90
22558;DHT22;11445;53.816;8.902;2023-12-20T10:01:43;6.10;99.90
22558;DHT22;11445;53.816;8.902;2023-12-20T10:04:11;6.10;99.90
22558;DHT22;11445;53.816;8.902;2023-12-20T10:06:40;6.10;99.90
22558;DHT22;11445;53.816;8.902;2023-12-20T10:09:07;6.20;99.90
22558;DHT22;11445;53.816;8.902;2023-12-20T10:11:35;6.20;99.90
22558;DHT22;11445;53.816;8.902;2023-12-20T10:14:03;6.20;99.90
22558;DHT22;11445;53.816;8.902;2023-12-20T10:16:30;6.20;99.90
22558;DHT22;11445;53.816;8.902;2023-12-20T10:18:58;6.30;99.90
22558;DHT22;11445;53.816;8.902;2023-12-20T10:21:25;6.30;99.90
22558;DHT22;11445;53.816;8.902;2023-12-20T10:23:54;6.30;99.90
22558;DHT22;11445;53.816;8.902;2023-12-20T10:26:21;6.40;99.90
22558;DHT22;11445;53.816;8.902;2023-12-20T10:28:50;6.40;99.90
22558;DHT22;11445;53.816;8.902;2023-12-20T10:31:28;6.40;99.90
22558;DHT22;11445;53.816;8.902;2023-12-20T10:33:56;6.40;99.90
22558;DHT22;11445;53.816;8.902;2023-12-20T10:36:24;6.50;99.90
22558;DHT22;11445;53.816;8.902;2023-12-20T10:38:54;6.60;99.90
22558;DHT22;11445;53.816;8.902;2023-12-20T10:41:25;6.60;99.90
22558;DHT22;11445;53.816;8.902;2023-12-20T10:43:52;6.70;99.90
22558;DHT22;11445;53.816;8.902;2023-12-20T10:46:19;6.80;99.90
22558;DHT22;11445;53.816;8.902;2023-12-20T10:48:47;6.80;99.90
22558;DHT22;11445;53.816;8.902;2023-12-20T10:51:17;6.90;99.90
22558;DHT22;11445;53.816;8.902;2023-12-20T10:53:47;6.90;99.90
22558;DHT22;11445;53.816;8.902;2023-12-20T10:56:17;6.90;99.90
22558;DHT22;11445;53.816;8.902;2023-12-20T10:58:45;6.90;99.90
22558;DHT22;11445;53.816;8.902;2023-12-20T11:01:13;6.90;99.90
22558;DHT22;11445;53.816;8.902;2023-12-20T11:03:44;6.90;99.90
22558;DHT22;11445;53.816;8.902;2023-12-20T11:06:20;6.90;99.90
22558;DHT22;11445;53.816;8.902;2023-12-20T11:08:53;6.90;99.90
22558;DHT22;11445;53.816;8.902;2023-12-20T11:11:27;6.80;99.90
22558;DHT22;11445;53.816;8.902;2023-12-20T11:14:00;6.70;99.90
22558;DHT22;11445;53.816;8.902;2023-12-20T11:16:27;6.70;99.90
22558;DHT22;11445;53.816;8.902;2023-12-20T11:18:54;6.60;99.90
22558;DHT22;11445;53.816;8.902;2023-12-20T11:21:21;6.50;99.90
22558;DHT22;11445;53.816;8.902;2023-12-20T11:23:48;6.60;99.90
22558;DHT22;11445;53.816;8.902;2023-12-20T11:26:16;6.70;99.90
22558;DHT22;11445;53.816;8.902;2023-12-20T11:28:44;6.70;99.90
22558;DHT22;11445;53.816;8.902;2023-12-20T11:31:14;6.70;99.90
22558;DHT22;11445;53.816;8.902;2023-12-20T11:33:42;6.70;99.90
22558;DHT22;11445;53.816;8.902;2023-12-20T11:36:13;6.70;99.90
22558;DHT22;11445;53.816;8.902;2023-12-20T11:38:53;6.70;99.90
22558;DHT22;11445;53.816;8.902;2023-12-20T11:41:22;6.70;99.90
22558;DHT22;11445;53.816;8.902;2023-12-20T11:43:53;6.70;99.90
22558;DHT22;11445;53.816;8.902;2023-12-20T11:46:20;6.70;99.90
22558;DHT22;11445;53.816;8.902;2023-12-20T11:48:48;6.80;99.90
22558;DHT22;11445;53.816;8.902;2023-12-20T11:51:15;6.80;99.90
22558;DHT22;11445;53.816;8.902;2023-12-20T11:53:41;6.90;99.90
22558;DHT22;11445;53.816;8.902;2023-12-20T11:56:09;6.80;99.90
22558;DHT22;11445;53.816;8.902;2023-12-20T11:58:36;6.90;99.90
22558;DHT22;11445;53.816;8.902;2023-12-20T12:01:05;6.80;99.90
22558;DHT22;11445;53.816;8.902;2023-12-20T12:03:32;6.90;99.90
22558;DHT22;11445;53.816;8.902;2023-12-20T12:05:59;6.90;99.90
22558;DHT22;11445;53.816;8.902;2023-12-20T12:08:27;7.00;99.90
22558;DHT22;11445;53.816;8.902;2023-12-20T12:10:54;7.00;99.90
22558;DHT22;11445;53.816;8.902;2023-12-20T12:13:21;7.10;99.90
22558;DHT22;11445;53.816;8.902;2023-12-20T12:15:48;7.20;99.90
22558;DHT22;11445;53.816;8.902;2023-12-20T12:18:17;7.20;99.90
22558;DHT22;11445;53.816;8.902;2023-12-20T12:20:44;7.30;99.90
22558;DHT22;11445;53.816;8.902;2023-12-20T12:23:11;7.30;99.90
22558;DHT22;11445;53.816;8.902;2023-12-20T12:25:38;7.30;99.90
22558;DHT22;11445;53.816;8.902;2023-12-20T12:28:05;7.30;99.90
22558;DHT22;11445;53.816;8.902;2023-12-20T12:30:32;7.40;99.90
22558;DHT22;11445;53.816;8.902;2023-12-20T12:32:59;7.40;99.90
22558;DHT22;11445;53.816;8.902;2023-12-20T12:35:27;7.40;99.90
22558;DHT22;11445;53.816;8.902;2023-12-20T12:37:54;7.50;99.90
22558;DHT22;11445;53.816;8.902;2023-12-20T12:40:21;7.60;99.90
22558;DHT22;11445;53.816;8.902;2023-12-20T12:42:48;7.80;99.90
22558;DHT22;11445;53.816;8.902;2023-12-20T12:45:15;8.00;99.90
22558;DHT22;11445;53.816;8.902;2023-12-20T12:47:42;7.90;99.90
22558;DHT22;11445;53.816;8.902;2023-12-20T12:50:09;7.80;99.90
22558;DHT22;11445;53.816;8.902;2023-12-20T12:52:37;7.70;99.90
22558;DHT22;11445;53.816;8.902;2023-12-20T12:55:05;7.60;99.90
22558;DHT22;11445;53.816;8.902;2023-12-20T12:57:32;7.60;99.90
22558;DHT22;11445;53.816;8.902;2023-12-20T12:59:59;7.60;99.90
22558;DHT22;11445;53.816;8.902;2023-12-20T13:02:25;7.50;99.90
22558;DHT22;11445;53.816;8.902;2023-12-20T13:04:52;7.40;99.90
22558;DHT22;11445;53.816;8.902;2023-12-20T13:07:19;7.40;99.90
22558;DHT22;11445;53.816;8.902;2023-12-20T13:09:47;7.40;99.90
22558;DHT22;11445;53.816;8.902;2023-12-20T13:12:14;7.40;99.90
22558;DHT22;11445;53.816;8.902;2023-12-20T13:14:41;7.40;99.90
22558;DHT22;11445;53.816;8.902;2023-12-20T13:17:10;7.40;99.90
22558;DHT22;11445;53.816;8.902;2023-12-20T13:19:37;7.40;99.90
22558;DHT22;11445;53.816;8.902;2023-12-20T13:22:04;7.40;99.90
22558;DHT22;11445;53.816;8.902;2023-12-20T13:24:31;7.30;99.90
22558;DHT22;11445;53.816;8.902;2023-12-20T13:27:00;7.30;99.90
22558;DHT22;11445;53.816;8.902;2023-12-20T13:29:27;7.20;99.90
22558;DHT22;11445;53.816;8.902;2023-12-20T13:31:54;7.20;99.90
22558;DHT22;11445;53.816;8.902;2023-12-20T13:34:20;7.20;99.90
22558;DHT22;11445;53.816;8.902;2023-12-20T13:36:47;7.20;99.90
22558;DHT22;11445;53.816;8.902;2023-12-20T13:39:16;7.10;99.90
22558;DHT22;11445;53.816;8.902;2023-12-20T13:41:43;7.10;99.90
22558;DHT22;11445;53.816;8.902;2023-12-20T13:44:11;7.10;99.90
22558;DHT22;11445;53.816;8.902;2023-12-20T13:46:38;7.10;99.90
22558;DHT22;11445;53.816;8.902;2023-12-20T13:49:07;7.10;99.90
22558;DHT22;11445;53.816;8.902;2023-12-20T13:51:34;7.00;99.90
22558;DHT22;11445;53.816;8.902;2023-12-20T13:54:01;7.10;99.90
22558;DHT22;11445;53.816;8.902;2023-12-20T13:56:27;7.10;99.90
22558;DHT22;11445;53.816;8.902;2023-12-20T13:58:54;7.10;99.90
22558;DHT22;11445;53.816;8.902;2023-12-20T14:01:23;7.00;99.90
22558;DHT22;11445;53.816;8.902;2023-12-20T14:03:50;7.00;99.90
22558;DHT22;11445;53.816;8.902;2023-12-20T14:06:17;6.90;99.90
22558;DHT22;11445;53.816;8.902;2023-12-20T14:08:43;6.90;99.90
22558;DHT22;11445;53.816;8.902;2023-12-20T14:11:10;6.90;99.90
22558;DHT22;11445;53.816;8.902;2023-12-20T14:13:38;6.90;99.90
22558;DHT22;11445;53.816;8.902;2023-12-20T14:16:05;6.90;99.90
22558;DHT22;11445;53.816;8.902;2023-12-20T14:18:33;6.80;99.90
22558;DHT22;11445;53.816;8.902;2023-12-20T14:21:00;6.80;99.90
22558;DHT22;11445;53.816;8.902;2023-12-20T14:23:27;6.80;99.90
22558;DHT22;11445;53.816;8.902;2023-12-20T14:25:53;6.80;99.90
22558;DHT22;11445;53.816;8.902;2023-12-20T14:28:21;6.80;99.90
22558;DHT22;11445;53.816;8.902;2023-12-20T14:30:48;6.80;99.90
22558;DHT22;11445;53.816;8.902;2023-12-20T14:33:15;6.80;99.90
22558;DHT22;11445;53.816;8.902;2023-12-20T14:35:43;6.80;99.90
22558;DHT22;11445;53.816;8.902;2023-12-20T14:38:10;6.90;99.90
22558;DHT22;11445;53.816;8.902;2023-12-20T14:40:38;6.80;99.90
22558;DHT22;11445;53.816;8.902;2023-12-20T14:43:06;6.80;99.90
22558;DHT22;11445;53.816;8.902;2023-12-20T14:45:33;6.80;99.90
22558;DHT22;11445;53.816;8.902;2023-12-20T14:47:59;6.70;99.90
22558;DHT22;11445;53.816;8.902;2023-12-20T14:50:26;6.70;99.90
22558;DHT22;11445;53.816;8.902;2023-12-20T14:52:55;6.70;99.90
22558;DHT22;11445;53.816;8.902;2023-12-20T14:55:22;6.70;99.90
22558;DHT22;11445;53.816;8.902;2023-12-20T14:57:48;6.70;99.90
22558;DHT22;11445;53.816;8.902;2023-12-20T15:00:16;6.60;99.90
22558;DHT22;11445;53.816;8.902;2023-12-20T15:02:43;6.60;99.90
22558;DHT22;11445;53.816;8.902;2023-12-20T15:05:10;6.60;99.90
22558;DHT22;11445;53.816;8.902;2023-12-20T15:07:37;6.60;99.90
22558;DHT22;11445;53.816;8.902;2023-12-20T15:10:06;6.60;99.90
22558;DHT22;11445;53.816;8.902;2023-12-20T15:12:33;6.70;99.90
22558;DHT22;11445;53.816;8.902;2023-12-20T15:15:00;6.70;99.90
22558;DHT22;11445;53.816;8.902;2023-12-20T15:17:28;6.70;99.90
22558;DHT22;11445;53.816;8.902;2023-12-20T15:19:55;6.70;99.90
22558;DHT22;11445;53.816;8.902;2023-12-20T15:22:22;6.70;99.90
22558;DHT22;11445;53.816;8.902;2023-12-20T15:24:51;6.70;99.90
22558;DHT22;11445;53.816;8.902;2023-12-20T15:27:21;6.70;99.90
22558;DHT22;11445;53.816;8.902;2023-12-20T15:29:48;6.80;99.90
22558;DHT22;11445;53.816;8.902;2023-12-20T15:32:16;6.70;99.90
22558;DHT22;11445;53.816;8.902;2023-12-20T15:34:44;6.70;99.90
22558;DHT22;11445;53.816;8.902;2023-12-20T15:37:11;6.70;99.90
22558;DHT22;11445;53.816;8.902;2023-12-20T15:39:38;6.60;99.90
22558;DHT22;11445;53.816;8.902;2023-12-20T15:42:05;6.50;99.90
22558;DHT22;11445;53.816;8.902;2023-12-20T15:44:33;6.40;99.90
22558;DHT22;11445;53.816;8.902;2023-12-20T15:47:00;6.40;99.90